createdAt,value
2023-05-19T00:01:31.178Z,87.21
2023-05-19T00:04:33.861Z,87.66
2023-05-19T00:07:38.747Z,87.80
2023-05-19T00:10:41.341Z,87.79
2023-05-19T00:13:48.359Z,87.42
2023-05-19T00:16:50.775Z,87.34
2023-05-19T00:19:54.866Z,87.58
2023-05-19T00:22:58.068Z,87.67
2023-05-19T00:25:59.896Z,87.70
2023-05-19T00:29:02.515Z,87.76
2023-05-19T00:32:05.178Z,87.84
2023-05-19T00:35:08.422Z,87.07
2023-05-19T00:38:11.588Z,87.71
2023-05-19T00:41:14.608Z,87.05
2023-05-19T00:44:16.426Z,87.14
2023-05-19T00:47:18.474Z,87.38
2023-05-19T00:50:22.838Z,87.94
2023-05-19T00:53:26.386Z,87.18
2023-05-19T00:56:28.603Z,87.64
2023-05-19T00:59:30.589Z,87.80
2023-05-19T01:02:32.763Z,87.70
2023-05-19T01:05:34.726Z,88.00
2023-05-19T01:08:38.346Z,87.51
2023-05-19T01:11:40.438Z,87.71
2023-05-19T01:14:42.625Z,87.81
2023-05-19T01:17:50.315Z,87.94
2023-05-19T01:21:03.794Z,87.52
2023-05-19T01:24:23.397Z,87.91
2023-05-19T01:27:51.234Z,87.77
2023-05-19T01:30:55.799Z,87.92
2023-05-19T01:33:59.443Z,87.31
2023-05-19T01:37:01.852Z,88.22
2023-05-19T01:40:04.220Z,87.92
2023-05-19T01:43:08.071Z,87.48
2023-05-19T01:46:12.136Z,87.25
2023-05-19T01:49:14.568Z,87.42
2023-05-19T01:52:16.421Z,87.40
2023-05-19T01:55:19.744Z,87.30
2023-05-19T01:58:31.321Z,87.35
2023-05-19T02:01:41.553Z,87.89
2023-05-19T02:04:50.977Z,87.27
2023-05-19T02:07:58.728Z,87.15
2023-05-19T02:11:09.912Z,87.25
2023-05-19T02:14:16.192Z,87.79
2023-05-19T02:17:20.872Z,87.34
2023-05-19T02:20:22.793Z,86.96
2023-05-19T02:23:25.409Z,87.00
2023-05-19T02:26:27.352Z,87.24
2023-05-19T02:29:30.147Z,87.58
2023-05-19T02:32:33.516Z,87.41
2023-05-19T02:35:40.894Z,86.93
2023-05-19T02:38:42.750Z,86.94
2023-05-19T02:41:45.123Z,87.29
2023-05-19T02:44:47.014Z,87.19
2023-05-19T02:47:50.365Z,87.49
2023-05-19T02:50:53.129Z,87.43
2023-05-19T02:53:54.928Z,87.54
2023-05-19T02:56:57.453Z,87.05
2023-05-19T03:00:00.297Z,86.83
2023-05-19T03:03:04.729Z,87.44
2023-05-19T03:06:08.834Z,86.91
2023-05-19T03:09:10.691Z,87.21
2023-05-19T03:12:13.151Z,87.33
2023-05-19T03:15:15.180Z,87.20
2023-05-19T03:18:18.453Z,87.13
2023-05-19T03:21:21.038Z,87.61
2023-05-19T03:24:22.947Z,87.05
2023-05-19T03:27:24.812Z,87.97
2023-05-19T03:30:27.027Z,87.02
2023-05-19T03:33:30.587Z,87.70
2023-05-19T03:36:32.523Z,87.09
2023-05-19T03:39:34.354Z,87.47
2023-05-19T03:42:36.224Z,87.28
2023-05-19T03:45:38.123Z,87.42
2023-05-19T03:48:42.318Z,87.80
2023-05-19T03:51:44.431Z,87.91
2023-05-19T03:54:46.264Z,88.08
2023-05-19T03:57:49.013Z,87.63
2023-05-19T04:00:51.135Z,87.48
2023-05-19T04:03:55.448Z,88.00
2023-05-19T04:06:58.002Z,87.30
2023-05-19T04:10:00.066Z,86.78
2023-05-19T04:13:01.935Z,87.49
2023-05-19T04:16:04.612Z,86.44
2023-05-19T04:19:07.996Z,86.83
2023-05-19T04:22:09.884Z,86.67
2023-05-19T04:25:12.049Z,86.49
2023-05-19T04:28:13.935Z,85.76
2023-05-19T04:31:15.888Z,86.30
2023-05-19T04:34:20.134Z,85.46
2023-05-19T04:37:22.344Z,84.62
2023-05-19T04:40:24.299Z,84.97
2023-05-19T04:43:28.385Z,86.57
2023-05-19T04:46:30.478Z,85.25
2023-05-19T04:49:38.779Z,85.23
2023-05-19T04:52:41.894Z,84.92
2023-05-19T04:55:44.219Z,84.55
2023-05-19T04:58:46.840Z,85.13
2023-05-19T05:01:48.794Z,84.96
2023-05-19T05:04:54.640Z,84.37
2023-05-19T05:07:56.491Z,83.91
2023-05-19T05:10:59.555Z,83.49
2023-05-19T05:14:01.973Z,82.89
2023-05-19T05:17:05.436Z,83.02
2023-05-19T05:20:11.534Z,83.33
2023-05-19T05:23:17.029Z,81.89
2023-05-19T05:26:23.310Z,81.44
2023-05-19T05:29:25.284Z,81.87
2023-05-19T05:32:27.257Z,82.25
2023-05-19T05:35:30.845Z,79.90
2023-05-19T05:38:33.079Z,82.44
2023-05-19T05:41:37.628Z,82.21
2023-05-19T05:44:39.703Z,81.78
2023-05-19T05:47:42.225Z,79.48
2023-05-19T05:50:46.085Z,80.51
2023-05-19T05:53:52.550Z,80.44
2023-05-19T05:56:55.148Z,80.58
2023-05-19T05:59:57.767Z,80.57
2023-05-19T06:02:59.985Z,82.96
2023-05-19T06:06:03.526Z,85.45
2023-05-19T06:09:05.758Z,84.97
2023-05-19T06:12:08.188Z,86.59
2023-05-19T06:15:10.972Z,85.43
2023-05-19T06:18:12.826Z,86.20
2023-05-19T06:21:17.700Z,84.77
2023-05-19T06:24:19.545Z,83.97
2023-05-19T06:27:21.621Z,84.58
2023-05-19T06:30:23.435Z,83.46
2023-05-19T06:33:28.847Z,80.87
2023-05-19T06:36:32.497Z,78.30
2023-05-19T06:39:34.422Z,76.26
2023-05-19T06:42:36.321Z,74.08
2023-05-19T06:45:38.123Z,74.42
2023-05-19T06:48:40.010Z,74.13
2023-05-19T06:51:43.299Z,72.50
2023-05-19T06:54:45.198Z,72.87
2023-05-19T06:57:47.023Z,70.35
2023-05-19T07:00:48.950Z,71.66
2023-05-19T07:03:50.907Z,72.81
2023-05-19T07:06:55.089Z,75.95
2023-05-19T07:09:57.014Z,79.58
2023-05-19T07:12:59.518Z,76.31
2023-05-19T07:16:01.525Z,75.73
2023-05-19T07:19:03.503Z,75.13
2023-05-19T07:22:06.844Z,75.59
2023-05-19T07:25:10.122Z,77.91
2023-05-19T07:28:12.005Z,76.61
2023-05-19T07:31:14.500Z,76.50
2023-05-19T07:34:16.572Z,77.37
2023-05-19T07:37:19.791Z,77.68
2023-05-19T07:40:21.741Z,78.61
2023-05-19T07:43:23.590Z,76.89
2023-05-19T07:46:26.670Z,78.86
2023-05-19T07:49:28.677Z,79.66
2023-05-19T07:52:31.916Z,77.56
2023-05-19T07:55:34.405Z,78.09
2023-05-19T07:58:36.279Z,77.16
2023-05-19T08:01:38.451Z,75.61
2023-05-19T08:04:40.362Z,76.90
2023-05-19T08:07:43.786Z,74.83
2023-05-19T08:10:46.492Z,76.19
2023-05-19T08:13:51.123Z,75.63
2023-05-19T08:16:53.402Z,73.65
2023-05-19T08:19:55.397Z,73.66
2023-05-19T08:22:58.776Z,72.52
2023-05-19T08:26:00.773Z,69.25
2023-05-19T08:29:03.268Z,72.53
2023-05-19T08:32:05.788Z,71.43
2023-05-19T08:35:08.784Z,71.05
2023-05-19T08:38:12.715Z,68.08
2023-05-19T08:41:14.569Z,71.40
2023-05-19T08:44:19.026Z,67.63
2023-05-19T08:47:21.227Z,71.22
2023-05-19T08:50:30.703Z,68.02
2023-05-19T08:53:37.922Z,68.02
2023-05-19T08:56:40.525Z,66.26
2023-05-19T08:59:43.883Z,70.03
2023-05-19T09:02:59.803Z,66.02
2023-05-19T09:06:14.502Z,68.89
2023-05-19T09:09:17.743Z,67.40
2023-05-19T09:12:21.109Z,64.55
2023-05-19T09:15:27.204Z,64.66
2023-05-19T09:18:29.796Z,63.92
2023-05-19T09:21:32.569Z,62.83
2023-05-19T09:24:36.172Z,64.78
2023-05-19T09:27:38.198Z,61.89
2023-05-19T09:30:40.077Z,61.78
2023-05-19T09:33:45.860Z,63.09
2023-05-19T09:36:54.719Z,63.10
2023-05-19T09:39:58.485Z,66.82
2023-05-19T09:43:07.921Z,66.52
2023-05-19T09:46:14.720Z,66.50
2023-05-19T09:49:21.730Z,68.08
2023-05-19T09:52:23.616Z,64.03
2023-05-19T09:55:29.096Z,64.29
2023-05-19T09:58:31.990Z,64.43
2023-05-19T10:01:36.419Z,63.28
2023-05-19T10:04:38.710Z,66.02
2023-05-19T10:07:41.419Z,68.56
2023-05-19T10:10:45.908Z,63.04
2023-05-19T10:13:51.334Z,64.22
2023-05-19T10:16:54.752Z,61.88
2023-05-19T10:19:58.824Z,62.46
2023-05-19T10:23:00.837Z,60.58
2023-05-19T10:26:06.908Z,63.10
2023-05-19T10:29:09.076Z,60.61
2023-05-19T10:32:23.358Z,61.22
2023-05-19T10:36:00.771Z,60.63
2023-05-19T10:39:06.603Z,61.42
2023-05-19T10:42:16.130Z,62.28
2023-05-19T10:45:21.143Z,60.49
2023-05-19T10:48:24.190Z,60.77
2023-05-19T10:51:32.599Z,58.16
2023-05-19T10:54:46.280Z,60.47
2023-05-19T10:57:58.612Z,59.72
2023-05-19T11:01:01.652Z,60.93
2023-05-19T11:04:09.167Z,59.88
2023-05-19T11:07:11.118Z,57.79
2023-05-19T11:10:14.092Z,58.03
2023-05-19T11:13:24.011Z,56.02
2023-05-19T11:16:30.138Z,57.54
2023-05-19T11:19:34.641Z,57.11
2023-05-19T11:22:37.146Z,59.04
2023-05-19T11:25:46.957Z,58.07
2023-05-19T11:28:52.120Z,54.81
2023-05-19T11:31:54.597Z,57.56
2023-05-19T11:34:57.962Z,53.32
2023-05-19T11:37:59.978Z,52.28
2023-05-19T11:41:01.996Z,52.58
2023-05-19T11:44:10.134Z,52.00
2023-05-19T11:47:13.437Z,54.35
2023-05-19T11:50:16.680Z,60.50
2023-05-19T11:53:19.919Z,56.14
2023-05-19T11:56:22.167Z,57.09
2023-05-19T11:59:33.492Z,57.31
2023-05-19T12:02:37.934Z,57.29
2023-05-19T12:05:46.386Z,56.88
2023-05-19T12:08:51.404Z,54.81
2023-05-19T12:11:55.392Z,56.06
2023-05-19T12:14:59.105Z,55.51
2023-05-19T12:18:02.495Z,61.83
2023-05-19T12:21:05.346Z,60.10
2023-05-19T12:24:08.620Z,52.13
2023-05-19T12:27:18.521Z,51.82
2023-05-19T12:30:26.759Z,51.42
2023-05-19T12:33:28.729Z,54.94
2023-05-19T12:36:32.350Z,55.76
2023-05-19T12:39:34.350Z,54.82
2023-05-19T12:42:37.901Z,53.92
2023-05-19T12:45:42.676Z,53.40
2023-05-19T12:48:45.713Z,51.86
2023-05-19T12:51:52.437Z,51.24
2023-05-19T12:54:58.786Z,52.70
2023-05-19T12:58:07.197Z,56.17
2023-05-19T13:01:16.356Z,54.96
2023-05-19T13:04:18.660Z,54.81
2023-05-19T13:07:20.669Z,53.85
2023-05-19T13:10:23.096Z,53.09
2023-05-19T13:13:25.029Z,51.51
2023-05-19T13:16:29.490Z,53.45
2023-05-19T13:19:31.558Z,54.48
2023-05-19T13:22:33.547Z,52.68
2023-05-19T13:25:36.175Z,52.64
2023-05-19T13:28:37.996Z,57.21
2023-05-19T13:31:42.026Z,52.80
2023-05-19T13:34:43.916Z,52.22
2023-05-19T13:37:46.385Z,50.83
2023-05-19T13:40:48.598Z,52.55
2023-05-19T13:43:50.494Z,52.55
2023-05-19T13:46:53.967Z,51.41
2023-05-19T13:49:55.992Z,51.61
2023-05-19T13:52:57.952Z,51.09
2023-05-19T13:56:00.965Z,51.09
2023-05-19T13:59:04.128Z,49.11
2023-05-19T14:02:08.263Z,47.56
2023-05-19T14:05:10.482Z,49.79
2023-05-19T14:08:12.347Z,50.68
2023-05-19T14:11:17.975Z,55.11
2023-05-19T14:14:19.822Z,54.02
2023-05-19T14:17:23.054Z,58.62
2023-05-19T14:20:25.892Z,51.77
2023-05-19T14:23:30.450Z,52.18
2023-05-19T14:26:32.400Z,58.90
2023-05-19T14:29:34.667Z,59.36
2023-05-19T14:32:38.965Z,51.69
2023-05-19T14:35:41.097Z,52.35
2023-05-19T14:38:42.949Z,50.09
2023-05-19T14:41:45.432Z,50.97
2023-05-19T14:44:50.367Z,54.98
2023-05-19T14:47:53.854Z,53.72
2023-05-19T14:50:55.956Z,56.41
2023-05-19T14:53:57.863Z,52.24
2023-05-19T14:57:01.636Z,51.81
2023-05-19T15:00:04.192Z,54.24
2023-05-19T15:03:07.877Z,55.97
2023-05-19T15:06:10.859Z,51.49
2023-05-19T15:09:14.672Z,52.95
2023-05-19T15:12:17.459Z,56.30
2023-05-19T15:15:19.464Z,62.97
2023-05-19T15:18:22.772Z,58.52
2023-05-19T15:21:24.671Z,62.58
2023-05-19T15:24:27.262Z,54.58
2023-05-19T15:27:29.492Z,53.43
2023-05-19T15:30:31.358Z,54.56
2023-05-19T15:33:34.667Z,63.14
2023-05-19T15:36:36.700Z,56.40
2023-05-19T15:39:38.798Z,60.56
2023-05-19T15:42:41.332Z,62.02
2023-05-19T15:45:43.225Z,57.45
2023-05-19T15:48:46.547Z,62.57
2023-05-19T15:51:48.388Z,63.84
2023-05-19T15:54:50.250Z,58.87
2023-05-19T15:57:52.305Z,58.80
2023-05-19T16:00:54.282Z,56.33
2023-05-19T16:03:57.681Z,56.62
2023-05-19T16:06:59.653Z,56.03
2023-05-19T16:10:01.684Z,56.60
2023-05-19T16:13:04.314Z,55.42
2023-05-19T16:16:07.018Z,62.25
2023-05-19T16:19:10.521Z,56.09
2023-05-19T16:22:13.204Z,64.05
2023-05-19T16:25:15.241Z,62.19
2023-05-19T16:28:17.187Z,61.39
2023-05-19T16:31:19.253Z,61.87
2023-05-19T16:34:22.428Z,63.59
2023-05-19T16:37:25.188Z,65.04
2023-05-19T16:40:29.455Z,64.91
2023-05-19T16:43:34.026Z,72.16
2023-05-19T16:46:35.972Z,72.30
2023-05-19T16:49:40.889Z,69.32
2023-05-19T16:52:42.701Z,70.04
2023-05-19T16:55:45.098Z,73.35
2023-05-19T16:58:47.105Z,76.53
2023-05-19T17:01:49.139Z,73.61
2023-05-19T17:04:52.545Z,74.02
2023-05-19T17:07:55.169Z,72.13
2023-05-19T17:10:57.287Z,77.14
2023-05-19T17:13:59.555Z,79.62
2023-05-19T17:17:01.639Z,76.46
2023-05-19T17:20:07.117Z,78.12
2023-05-19T17:23:09.002Z,78.82
2023-05-19T17:26:10.831Z,79.23
2023-05-19T17:29:13.037Z,76.49
2023-05-19T17:32:14.837Z,75.26
2023-05-19T17:35:18.556Z,72.67
2023-05-19T17:38:20.996Z,78.27
2023-05-19T17:41:22.914Z,76.57
2023-05-19T17:44:25.304Z,77.28
2023-05-19T17:47:27.214Z,77.08
2023-05-19T17:50:30.501Z,79.64
2023-05-19T17:53:33.040Z,77.27
2023-05-19T17:56:40.650Z,74.18
2023-05-19T17:59:42.876Z,77.97
2023-05-19T18:02:45.446Z,77.77
2023-05-19T18:05:49.805Z,77.33
2023-05-19T18:08:53.337Z,80.83
2023-05-19T18:11:55.251Z,79.42
2023-05-19T18:14:57.334Z,79.76
2023-05-19T18:17:59.425Z,77.73
2023-05-19T18:21:03.302Z,79.67
2023-05-19T18:24:06.041Z,81.54
2023-05-19T18:27:09.138Z,80.97
2023-05-19T18:30:11.771Z,83.05
2023-05-19T18:33:13.648Z,81.49
2023-05-19T18:36:17.629Z,83.84
2023-05-19T18:39:19.549Z,84.40
2023-05-19T18:42:22.077Z,85.35
2023-05-19T18:45:23.926Z,84.87
2023-05-19T18:48:25.925Z,85.31
2023-05-19T18:51:29.947Z,85.04
2023-05-19T18:54:32.634Z,84.18
2023-05-19T18:57:34.866Z,82.75
2023-05-19T19:00:37.121Z,84.04
2023-05-19T19:03:38.971Z,85.41
2023-05-19T19:06:43.793Z,85.24
2023-05-19T19:09:46.818Z,83.00
2023-05-19T19:12:48.687Z,84.08
2023-05-19T19:15:50.608Z,84.55
2023-05-19T19:18:52.891Z,84.31
2023-05-19T19:21:56.094Z,85.16
2023-05-19T19:24:58.780Z,85.66
2023-05-19T19:28:01.630Z,86.19
2023-05-19T19:31:03.488Z,86.25
2023-05-19T19:34:09.204Z,85.26
2023-05-19T19:37:14.510Z,87.27
2023-05-19T19:40:16.773Z,86.99
2023-05-19T19:43:18.795Z,86.64
2023-05-19T19:46:20.760Z,85.96
2023-05-19T19:49:22.673Z,87.06
2023-05-19T19:52:26.284Z,88.73
2023-05-19T19:55:30.708Z,87.21
2023-05-19T19:58:32.621Z,87.36
2023-05-19T20:01:34.544Z,87.31
2023-05-19T20:04:36.727Z,86.11
2023-05-19T20:07:39.973Z,82.94
2023-05-19T20:10:42.616Z,81.88
2023-05-19T20:13:44.550Z,81.05
2023-05-19T20:16:46.898Z,81.54
2023-05-19T20:19:48.984Z,81.22
2023-05-19T20:22:53.033Z,80.63
2023-05-19T20:26:10.700Z,80.36
2023-05-19T20:29:14.154Z,80.76
2023-05-19T20:32:16.054Z,81.24
2023-05-19T20:35:18.183Z,81.82
2023-05-19T20:38:22.014Z,81.84
2023-05-19T20:41:23.875Z,82.16
2023-05-19T20:44:25.942Z,81.98
2023-05-19T20:47:30.383Z,82.16
2023-05-19T20:50:32.819Z,81.76
2023-05-19T20:53:36.912Z,81.40
2023-05-19T20:56:38.813Z,81.56
2023-05-19T20:59:40.947Z,81.69
2023-05-19T21:02:44.400Z,81.92
2023-05-19T21:05:46.450Z,82.16
2023-05-19T21:08:50.137Z,82.87
2023-05-19T21:11:55.152Z,82.57
2023-05-19T21:14:57.040Z,82.81
2023-05-19T21:17:59.021Z,83.02
2023-05-19T21:21:02.911Z,83.22
2023-05-19T21:24:09.665Z,82.97
2023-05-19T21:27:11.526Z,83.42
2023-05-19T21:30:13.849Z,83.33
2023-05-19T21:33:16.087Z,83.27
2023-05-19T21:36:18.507Z,83.10
2023-05-19T21:39:21.724Z,83.70
2023-05-19T21:42:24.484Z,83.90
2023-05-19T21:45:26.351Z,84.11
2023-05-19T21:48:30.165Z,84.01
2023-05-19T21:51:32.182Z,83.61
2023-05-19T21:54:36.235Z,83.94
2023-05-19T21:57:38.110Z,83.29
2023-05-19T22:00:40.656Z,83.83
2023-05-19T22:03:42.543Z,83.85
2023-05-19T22:06:45.665Z,83.32
2023-05-19T22:09:49.037Z,83.04
2023-05-19T22:12:51.377Z,82.94
2023-05-19T22:15:53.264Z,83.13
2023-05-19T22:18:55.609Z,83.44
2023-05-19T22:22:09.738Z,83.35
2023-05-19T22:25:16.657Z,83.10
2023-05-19T22:28:18.546Z,83.15
2023-05-19T22:31:21.639Z,83.21
2023-05-19T22:34:23.548Z,82.93
2023-05-19T22:37:27.202Z,83.38
2023-05-19T22:40:30.409Z,83.27
2023-05-19T22:43:34.729Z,83.01
2023-05-19T22:46:37.397Z,83.58
2023-05-19T22:49:39.487Z,85.08
2023-05-19T22:52:42.321Z,85.04
2023-05-19T22:55:45.705Z,84.79
2023-05-19T22:58:47.527Z,84.06
2023-05-19T23:01:50.324Z,83.39
2023-05-19T23:04:52.195Z,83.57
2023-05-19T23:07:54.228Z,83.18
2023-05-19T23:11:03.397Z,83.51
2023-05-19T23:14:05.736Z,83.12
2023-05-19T23:17:08.280Z,83.36
2023-05-19T23:20:11.795Z,83.07
2023-05-19T23:23:13.602Z,83.15
2023-05-19T23:26:17.600Z,83.09
2023-05-19T23:29:19.557Z,83.20
2023-05-19T23:32:22.131Z,83.39
2023-05-19T23:35:24.046Z,83.28
2023-05-19T23:38:27.103Z,83.08
2023-05-19T23:41:30.485Z,83.49
2023-05-19T23:44:32.462Z,83.05
2023-05-19T23:47:34.358Z,82.74
2023-05-19T23:50:37.135Z,82.25
2023-05-19T23:53:39.220Z,81.66
2023-05-19T23:56:43.467Z,82.26
2023-05-19T23:59:45.383Z,82.32
